sensor_id;sensor_type;location;lat;lon;timestamp;pressure;altitude;pressure_sealevel;temperature
76009;BMP280;64700;52.130;21.270;2023-05-07T00:01:17;101195.38;;;20.52
76009;BMP280;64700;52.130;21.270;2023-05-07T00:03:42;101192.84;;;20.57
76009;BMP280;64700;52.130;21.270;2023-05-07T00:06:08;101188.47;;;20.60
76009;BMP280;64700;52.130;21.270;2023-05-07T00:08:33;101189.88;;;20.64
76009;BMP280;64700;52.130;21.270;2023-05-07T00:10:58;101193.78;;;20.63
76009;BMP280;64700;52.130;21.270;2023-05-07T00:13:24;101199.56;;;20.65
76009;BMP280;64700;52.130;21.270;2023-05-07T00:15:49;101197.69;;;20.62
76009;BMP280;64700;52.130;21.270;2023-05-07T00:18:14;101200.34;;;20.53
76009;BMP280;64700;52.130;21.270;2023-05-07T00:20:39;101198.28;;;20.57
76009;BMP280;64700;52.130;21.270;2023-05-07T00:23:05;101200.53;;;20.59
76009;BMP280;64700;52.130;21.270;2023-05-07T00:25:30;101206.44;;;20.57
76009;BMP280;64700;52.130;21.270;2023-05-07T00:27:55;101204.16;;;20.56
76009;BMP280;64700;52.130;21.270;2023-05-07T00:30:20;101205.34;;;20.55
76009;BMP280;64700;52.130;21.270;2023-05-07T00:32:45;101211.22;;;20.53
76009;BMP280;64700;52.130;21.270;2023-05-07T00:35:11;101203.66;;;20.48
76009;BMP280;64700;52.130;21.270;2023-05-07T00:37:36;101196.59;;;20.51
76009;BMP280;64700;52.130;21.270;2023-05-07T00:40:01;101212.13;;;20.50
76009;BMP280;64700;52.130;21.270;2023-05-07T00:42:29;101208.50;;;20.53
76009;BMP280;64700;52.130;21.270;2023-05-07T00:44:56;101210.50;;;20.53
76009;BMP280;64700;52.130;21.270;2023-05-07T00:47:21;101210.03;;;20.54
76009;BMP280;64700;52.130;21.270;2023-05-07T00:49:46;101211.53;;;20.55
76009;BMP280;64700;52.130;21.270;2023-05-07T00:52:13;101210.28;;;20.47
76009;BMP280;64700;52.130;21.270;2023-05-07T00:54:38;101211.69;;;20.52
76009;BMP280;64700;52.130;21.270;2023-05-07T00:57:03;101215.78;;;20.56
76009;BMP280;64700;52.130;21.270;2023-05-07T00:59:30;101211.41;;;20.59
76009;BMP280;64700;52.130;21.270;2023-05-07T01:01:55;101210.66;;;20.58
76009;BMP280;64700;52.130;21.270;2023-05-07T01:04:20;101207.94;;;20.58
76009;BMP280;64700;52.130;21.270;2023-05-07T01:06:46;101217.16;;;20.61
76009;BMP280;64700;52.130;21.270;2023-05-07T01:09:11;101213.06;;;20.56
76009;BMP280;64700;52.130;21.270;2023-05-07T01:11:37;101218.78;;;20.58
76009;BMP280;64700;52.130;21.270;2023-05-07T01:14:02;101211.22;;;20.53
76009;BMP280;64700;52.130;21.270;2023-05-07T01:16:28;101215.31;;;20.58
76009;BMP280;64700;52.130;21.270;2023-05-07T01:18:53;101219.69;;;20.55
76009;BMP280;64700;52.130;21.270;2023-05-07T01:21:18;101212.75;;;20.54
76009;BMP280;64700;52.130;21.270;2023-05-07T01:23:49;101215.78;;;20.56
76009;BMP280;64700;52.130;21.270;2023-05-07T01:26:15;101223.63;;;20.54
76009;BMP280;64700;52.130;21.270;2023-05-07T01:28:41;101221.38;;;20.53
76009;BMP280;64700;52.130;21.270;2023-05-07T01:31:06;101222.56;;;20.52
76009;BMP280;64700;52.130;21.270;2023-05-07T01:33:32;101218.31;;;20.51
76009;BMP280;64700;52.130;21.270;2023-05-07T01:35:58;101224.94;;;20.49
76009;BMP280;64700;52.130;21.270;2023-05-07T01:38:26;101219.75;;;20.42
76009;BMP280;64700;52.130;21.270;2023-05-07T01:40:52;101218.25;;;20.41
76009;BMP280;64700;52.130;21.270;2023-05-07T01:43:18;101222.78;;;20.44
76009;BMP280;64700;52.130;21.270;2023-05-07T01:45:43;101227.91;;;20.42
76009;BMP280;64700;52.130;21.270;2023-05-07T01:48:10;101215.53;;;20.41
76009;BMP280;64700;52.130;21.270;2023-05-07T01:50:35;101227.34;;;20.47
76009;BMP280;64700;52.130;21.270;2023-05-07T01:53:01;101225.06;;;20.46
76009;BMP280;64700;52.130;21.270;2023-05-07T01:55:27;101222.34;;;20.46
76009;BMP280;64700;52.130;21.270;2023-05-07T01:57:52;101232.59;;;20.42
76009;BMP280;64700;52.130;21.270;2023-05-07T02:00:18;101223.25;;;20.43
76009;BMP280;64700;52.130;21.270;2023-05-07T02:02:44;101232.44;;;20.45
76009;BMP280;64700;52.130;21.270;2023-05-07T02:05:09;101227.47;;;20.44
76009;BMP280;64700;52.130;21.270;2023-05-07T02:07:35;101228.09;;;20.48
76009;BMP280;64700;52.130;21.270;2023-05-07T02:10:00;101222.78;;;20.44
76009;BMP280;64700;52.130;21.270;2023-05-07T02:12:25;101224.44;;;20.42
76009;BMP280;64700;52.130;21.270;2023-05-07T02:14:50;101229.09;;;20.41
76009;BMP280;64700;52.130;21.270;2023-05-07T02:17:15;101228.81;;;20.39
76009;BMP280;64700;52.130;21.270;2023-05-07T02:19:41;101227.91;;;20.42
76009;BMP280;64700;52.130;21.270;2023-05-07T02:22:06;101227.91;;;20.42
76009;BMP280;64700;52.130;21.270;2023-05-07T02:24:32;101232.41;;;20.36
76009;BMP280;64700;52.130;21.270;2023-05-07T02:26:57;101235.56;;;20.35
76009;BMP280;64700;52.130;21.270;2023-05-07T02:29:22;101229.09;;;20.41
76009;BMP280;64700;52.130;21.270;2023-05-07T02:31:47;101234.69;;;20.38
76009;BMP280;64700;52.130;21.270;2023-05-07T02:34:15;101236.50;;;20.41
76009;BMP280;64700;52.130;21.270;2023-05-07T02:36:41;101238.44;;;20.40
76009;BMP280;64700;52.130;21.270;2023-05-07T02:39:06;101243.25;;;20.36
76009;BMP280;64700;52.130;21.270;2023-05-07T02:41:31;101237.81;;;20.36
76009;BMP280;64700;52.130;21.270;2023-05-07T02:43:57;101230.75;;;20.39
76009;BMP280;64700;52.130;21.270;2023-05-07T02:46:22;101238.28;;;20.35
76009;BMP280;64700;52.130;21.270;2023-05-07T02:48:47;101235.88;;;20.37
76009;BMP280;64700;52.130;21.270;2023-05-07T02:51:12;101234.38;;;20.36
76009;BMP280;64700;52.130;21.270;2023-05-07T02:53:37;101245.53;;;20.38
76009;BMP280;64700;52.130;21.270;2023-05-07T02:56:03;101244.13;;;20.33
76009;BMP280;64700;52.130;21.270;2023-05-07T02:58:28;101237.53;;;20.34
76009;BMP280;64700;52.130;21.270;2023-05-07T03:00:53;101242.97;;;20.34
76009;BMP280;64700;52.130;21.270;2023-05-07T03:03:21;101242.59;;;20.32
76009;BMP280;64700;52.130;21.270;2023-05-07T03:05:46;101239.59;;;20.30
76009;BMP280;64700;52.130;21.270;2023-05-07T03:08:12;101242.31;;;20.30
76009;BMP280;64700;52.130;21.270;2023-05-07T03:10:37;101248.41;;;20.34
76009;BMP280;64700;52.130;21.270;2023-05-07T03:13:03;101242.19;;;20.34
76009;BMP280;64700;52.130;21.270;2023-05-07T03:15:28;101244.13;;;20.33
76009;BMP280;64700;52.130;21.270;2023-05-07T03:17:53;101248.50;;;20.31
76009;BMP280;64700;52.130;21.270;2023-05-07T03:20:19;101247.28;;;20.32
76009;BMP280;64700;52.130;21.270;2023-05-07T03:22:44;101253.47;;;20.32
76009;BMP280;64700;52.130;21.270;2023-05-07T03:25:09;101256.44;;;20.25
76009;BMP280;64700;52.130;21.270;2023-05-07T03:27:34;101264.31;;;20.23
76009;BMP280;64700;52.130;21.270;2023-05-07T03:30:00;101270.22;;;20.31
76009;BMP280;64700;52.130;21.270;2023-05-07T03:32:25;101270.53;;;20.33
76009;BMP280;64700;52.130;21.270;2023-05-07T03:34:50;101269.69;;;20.36
76009;BMP280;64700;52.130;21.270;2023-05-07T03:37:16;101270.31;;;20.40
76009;BMP280;64700;52.130;21.270;2023-05-07T03:39:41;101265.31;;;20.38
76009;BMP280;64700;52.130;21.270;2023-05-07T03:42:07;101276.63;;;20.37
76009;BMP280;64700;52.130;21.270;2023-05-07T03:44:32;101277.38;;;20.37
76009;BMP280;64700;52.130;21.270;2023-05-07T03:46:57;101268.03;;;20.38
76009;BMP280;64700;52.130;21.270;2023-05-07T03:49:22;101278.13;;;20.38
76009;BMP280;64700;52.130;21.270;2023-05-07T03:51:47;101282.94;;;20.34
76009;BMP280;64700;52.130;21.270;2023-05-07T03:54:13;101280.22;;;20.34
76009;BMP280;64700;52.130;21.270;2023-05-07T03:56:38;101282.06;;;20.37
76009;BMP280;64700;52.130;21.270;2023-05-07T03:59:03;101292.25;;;20.33
76009;BMP280;64700;52.130;21.270;2023-05-07T04:01:28;101294.56;;;20.34
76009;BMP280;64700;52.130;21.270;2023-05-07T04:03:54;101293.69;;;20.37
76009;BMP280;64700;52.130;21.270;2023-05-07T04:06:19;101300.00;;;20.34
76009;BMP280;64700;52.130;21.270;2023-05-07T04:08:44;101301.16;;;20.33
76009;BMP280;64700;52.130;21.270;2023-05-07T04:11:09;101298.06;;;20.35
76009;BMP280;64700;52.130;21.270;2023-05-07T04:13:35;101290.75;;;20.32
76009;BMP280;64700;52.130;21.270;2023-05-07T04:16:01;101306.41;;;20.28
76009;BMP280;64700;52.130;21.270;2023-05-07T04:18:27;101314.13;;;20.29
76009;BMP280;64700;52.130;21.270;2023-05-07T04:20:52;101308.69;;;20.29
76009;BMP280;64700;52.130;21.270;2023-05-07T04:23:17;101307.03;;;20.32
76009;BMP280;64700;52.130;21.270;2023-05-07T04:25:42;101317.06;;;20.35
76009;BMP280;64700;52.130;21.270;2023-05-07T04:28:08;101311.28;;;20.33
76009;BMP280;64700;52.130;21.270;2023-05-07T04:30:33;101319.41;;;20.33
76009;BMP280;64700;52.130;21.270;2023-05-07T04:32:58;101316.31;;;20.34
76009;BMP280;64700;52.130;21.270;2023-05-07T04:35:23;101319.31;;;20.36
76009;BMP280;64700;52.130;21.270;2023-05-07T04:37:49;101317.38;;;20.37
76009;BMP280;64700;52.130;21.270;2023-05-07T04:40:14;101322.81;;;20.37
76009;BMP280;64700;52.130;21.270;2023-05-07T04:42:39;101321.94;;;20.40
76009;BMP280;64700;52.130;21.270;2023-05-07T04:45:04;101324.94;;;20.42
76009;BMP280;64700;52.130;21.270;2023-05-07T04:47:30;101333.22;;;20.38
76009;BMP280;64700;52.130;21.270;2023-05-07T04:49:55;101330.94;;;20.37
76009;BMP280;64700;52.130;21.270;2023-05-07T04:52:20;101332.91;;;20.36
76009;BMP280;64700;52.130;21.270;2023-05-07T04:54:45;101334.88;;;20.36
76009;BMP280;64700;52.130;21.270;2023-05-07T04:57:11;101340.50;;;20.41
76009;BMP280;64700;52.130;21.270;2023-05-07T04:59:36;101344.53;;;20.37
76009;BMP280;64700;52.130;21.270;2023-05-07T05:02:01;101348.63;;;20.41
76009;BMP280;64700;52.130;21.270;2023-05-07T05:04:26;101341.38;;;20.38
76009;BMP280;64700;52.130;21.270;2023-05-07T05:06:52;101346.25;;;20.43
76009;BMP280;64700;52.130;21.270;2023-05-07T05:09:17;101355.91;;;20.44
76009;BMP280;64700;52.130;21.270;2023-05-07T05:11:42;101365.91;;;20.47
76009;BMP280;64700;52.130;21.270;2023-05-07T05:14:08;101363.19;;;20.47
76009;BMP280;64700;52.130;21.270;2023-05-07T05:16:33;101364.75;;;20.48
76009;BMP280;64700;52.130;21.270;2023-05-07T05:18:59;101374.91;;;20.44
76009;BMP280;64700;52.130;21.270;2023-05-07T05:21:24;101375.59;;;20.48
76009;BMP280;64700;52.130;21.270;2023-05-07T05:23:49;101384.28;;;20.43
76009;BMP280;64700;52.130;21.270;2023-05-07T05:26:15;101387.78;;;20.44
76009;BMP280;64700;52.130;21.270;2023-05-07T05:28:40;101390.38;;;20.47
76009;BMP280;64700;52.130;21.270;2023-05-07T05:31:05;101381.78;;;20.49
76009;BMP280;64700;52.130;21.270;2023-05-07T05:33:30;101380.16;;;20.52
76009;BMP280;64700;52.130;21.270;2023-05-07T05:35:56;101382.97;;;20.48
76009;BMP280;64700;52.130;21.270;2023-05-07T05:38:21;101391.94;;;20.58
76009;BMP280;64700;52.130;21.270;2023-05-07T05:40:46;101385.13;;;20.53
76009;BMP280;64700;52.130;21.270;2023-05-07T05:43:11;101381.22;;;20.54
76009;BMP280;64700;52.130;21.270;2023-05-07T05:45:37;101389.50;;;20.51
76009;BMP280;64700;52.130;21.270;2023-05-07T05:48:02;101392.41;;;20.56
76009;BMP280;64700;52.130;21.270;2023-05-07T05:50:27;101391.66;;;20.56
76009;BMP280;64700;52.130;21.270;2023-05-07T05:52:52;101396.97;;;20.59
76009;BMP280;64700;52.130;21.270;2023-05-07T05:55:17;101393.03;;;20.60
76009;BMP280;64700;52.130;21.270;2023-05-07T05:57:43;101402.53;;;20.56
76009;BMP280;64700;52.130;21.270;2023-05-07T06:00:08;101397.84;;;20.56
76009;BMP280;64700;52.130;21.270;2023-05-07T06:02:34;101408.72;;;20.56
76009;BMP280;64700;52.130;21.270;2023-05-07T06:04:59;101408.38;;;20.54
76009;BMP280;64700;52.130;21.270;2023-05-07T06:07:24;101404.34;;;20.59
76009;BMP280;64700;52.130;21.270;2023-05-07T06:09:50;101402.41;;;20.59
76009;BMP280;64700;52.130;21.270;2023-05-07T06:12:15;101405.78;;;20.63
76009;BMP280;64700;52.130;21.270;2023-05-07T06:14:42;101399.69;;;20.59
76009;BMP280;64700;52.130;21.270;2023-05-07T06:17:07;101401.09;;;20.64
76009;BMP280;64700;52.130;21.270;2023-05-07T06:19:32;101405.44;;;20.61
76009;BMP280;64700;52.130;21.270;2023-05-07T06:21:57;101406.13;;;20.53
76009;BMP280;64700;52.130;21.270;2023-05-07T06:24:23;101420.16;;;20.51
76009;BMP280;64700;52.130;21.270;2023-05-07T06:26:48;101419.72;;;20.53
76009;BMP280;64700;52.130;21.270;2023-05-07T06:29:14;101420.53;;;20.62
76009;BMP280;64700;52.130;21.270;2023-05-07T06:31:39;101415.56;;;20.61
76009;BMP280;64700;52.130;21.270;2023-05-07T06:34:04;101427.19;;;20.61
76009;BMP280;64700;52.130;21.270;2023-05-07T06:36:30;101412.72;;;20.64
76009;BMP280;64700;52.130;21.270;2023-05-07T06:38:55;101416.31;;;20.61
76009;BMP280;64700;52.130;21.270;2023-05-07T06:41:20;101412.06;;;20.60
76009;BMP280;64700;52.130;21.270;2023-05-07T06:43:45;101412.97;;;20.57
76009;BMP280;64700;52.130;21.270;2023-05-07T06:46:10;101410.25;;;20.57
76009;BMP280;64700;52.130;21.270;2023-05-07T06:48:36;101414.47;;;20.58
76009;BMP280;64700;52.130;21.270;2023-05-07T06:51:01;101416.41;;;20.58
76009;BMP280;64700;52.130;21.270;2023-05-07T06:53:26;101415.56;;;20.61
76009;BMP280;64700;52.130;21.270;2023-05-07T06:55:53;101428.28;;;20.64
76009;BMP280;64700;52.130;21.270;2023-05-07T06:58:19;101426.63;;;20.66
76009;BMP280;64700;52.130;21.270;2023-05-07T07:00:44;101417.81;;;20.62
76009;BMP280;64700;52.130;21.270;2023-05-07T07:03:10;101435.34;;;20.61
76009;BMP280;64700;52.130;21.270;2023-05-07T07:05:36;101430.22;;;20.63
76009;BMP280;64700;52.130;21.270;2023-05-07T07:08:01;101431.50;;;20.71
76009;BMP280;64700;52.130;21.270;2023-05-07T07:10:26;101433.00;;;20.85
76009;BMP280;64700;52.130;21.270;2023-05-07T07:12:51;101434.03;;;20.87
76009;BMP280;64700;52.130;21.270;2023-05-07T07:15:17;101446.13;;;20.86
76009;BMP280;64700;52.130;21.270;2023-05-07T07:17:42;101445.69;;;20.88
76009;BMP280;64700;52.130;21.270;2023-05-07T07:20:08;101453.53;;;20.86
76009;BMP280;64700;52.130;21.270;2023-05-07T07:22:33;101459.16;;;20.91
76009;BMP280;64700;52.130;21.270;2023-05-07T07:24:58;101458.84;;;20.89
76009;BMP280;64700;52.130;21.270;2023-05-07T07:27:24;101457.97;;;20.92
76009;BMP280;64700;52.130;21.270;2023-05-07T07:29:49;101461.00;;;20.95
76009;BMP280;64700;52.130;21.270;2023-05-07T07:32:14;101453.66;;;20.82
76009;BMP280;64700;52.130;21.270;2023-05-07T07:34:39;101461.41;;;20.71
76009;BMP280;64700;52.130;21.270;2023-05-07T07:37:04;101468.78;;;20.71
76009;BMP280;64700;52.130;21.270;2023-05-07T07:39:34;101465.00;;;20.68
76009;BMP280;64700;52.130;21.270;2023-05-07T07:41:59;101467.91;;;20.74
76009;BMP280;64700;52.130;21.270;2023-05-07T07:44:25;101474.09;;;20.74
76009;BMP280;64700;52.130;21.270;2023-05-07T07:46:50;101476.91;;;20.83
76009;BMP280;64700;52.130;21.270;2023-05-07T07:49:15;101477.47;;;20.78
76009;BMP280;64700;52.130;21.270;2023-05-07T07:51:41;101464.75;;;20.75
76009;BMP280;64700;52.130;21.270;2023-05-07T07:54:06;101468.78;;;20.71
76009;BMP280;64700;52.130;21.270;2023-05-07T07:56:32;101468.03;;;20.70
76009;BMP280;64700;52.130;21.270;2023-05-07T07:58:58;101473.94;;;20.69
76009;BMP280;64700;52.130;21.270;2023-05-07T08:01:23;101474.69;;;20.69
76009;BMP280;64700;52.130;21.270;2023-05-07T08:03:48;101482.38;;;20.71
76009;BMP280;64700;52.130;21.270;2023-05-07T08:06:13;101474.22;;;20.71
76009;BMP280;64700;52.130;21.270;2023-05-07T08:08:39;101470.44;;;20.68
76009;BMP280;64700;52.130;21.270;2023-05-07T08:11:04;101469.41;;;20.75
76009;BMP280;64700;52.130;21.270;2023-05-07T08:13:29;101477.31;;;20.95
76009;BMP280;64700;52.130;21.270;2023-05-07T08:15:55;101486.13;;;20.99
76009;BMP280;64700;52.130;21.270;2023-05-07T08:18:20;101483.84;;;20.97
76009;BMP280;64700;52.130;21.270;2023-05-07T08:20:45;101491.88;;;21.01
76009;BMP280;64700;52.130;21.270;2023-05-07T08:23:10;101490.91;;;20.95
76009;BMP280;64700;52.130;21.270;2023-05-07T08:25:35;101494.50;;;20.91
76009;BMP280;64700;52.130;21.270;2023-05-07T08:28:01;101491.03;;;20.91
76009;BMP280;64700;52.130;21.270;2023-05-07T08:30:26;101498.38;;;20.81
76009;BMP280;64700;52.130;21.270;2023-05-07T08:32:51;101498.13;;;20.76
76009;BMP280;64700;52.130;21.270;2023-05-07T08:35:17;101508.81;;;20.70
76009;BMP280;64700;52.130;21.270;2023-05-07T08:37:42;101503.50;;;20.67
76009;BMP280;64700;52.130;21.270;2023-05-07T08:40:07;101508.16;;;20.66
76009;BMP280;64700;52.130;21.270;2023-05-07T08:42:34;101506.00;;;20.61
76009;BMP280;64700;52.130;21.270;2023-05-07T08:45:00;101511.22;;;20.68
76009;BMP280;64700;52.130;21.270;2023-05-07T08:47:29;101516.19;;;20.70
76009;BMP280;64700;52.130;21.270;2023-05-07T08:49:55;101520.44;;;20.71
76009;BMP280;64700;52.130;21.270;2023-05-07T08:52:20;101512.28;;;20.71
76009;BMP280;64700;52.130;21.270;2023-05-07T08:54:45;101522.84;;;20.69
76009;BMP280;64700;52.130;21.270;2023-05-07T08:57:10;101521.63;;;20.70
76009;BMP280;64700;52.130;21.270;2023-05-07T08:59:36;101515.00;;;20.71
76009;BMP280;64700;52.130;21.270;2023-05-07T09:02:01;101519.25;;;20.72
76009;BMP280;64700;52.130;21.270;2023-05-07T09:04:27;101515.75;;;20.71
76009;BMP280;64700;52.130;21.270;2023-05-07T09:06:52;101518.47;;;20.71
76009;BMP280;64700;52.130;21.270;2023-05-07T09:09:17;101511.72;;;20.76
76009;BMP280;64700;52.130;21.270;2023-05-07T09:11:45;101515.22;;;20.76
76009;BMP280;64700;52.130;21.270;2023-05-07T09:14:10;101514.13;;;20.74
76009;BMP280;64700;52.130;21.270;2023-05-07T09:16:35;101530.75;;;20.76
76009;BMP280;64700;52.130;21.270;2023-05-07T09:19:01;101526.09;;;20.76
76009;BMP280;64700;52.130;21.270;2023-05-07T09:21:26;101517.53;;;20.78
76009;BMP280;64700;52.130;21.270;2023-05-07T09:23:52;101530.00;;;20.75
76009;BMP280;64700;52.130;21.270;2023-05-07T09:26:18;101530.44;;;20.74
76009;BMP280;64700;52.130;21.270;2023-05-07T09:28:43;101535.13;;;20.73
76009;BMP280;64700;52.130;21.270;2023-05-07T09:31:09;101537.06;;;20.73
76009;BMP280;64700;52.130;21.270;2023-05-07T09:33:34;101544.47;;;20.72
76009;BMP280;64700;52.130;21.270;2023-05-07T09:36:07;101547.75;;;20.67
76009;BMP280;64700;52.130;21.270;2023-05-07T09:38:33;101545.78;;;20.68
76009;BMP280;64700;52.130;21.270;2023-05-07T09:43:33;101551.34;;;20.64
76009;BMP280;64700;52.130;21.270;2023-05-07T09:46:01;101560.25;;;20.65
76009;BMP280;64700;52.130;21.270;2023-05-07T09:48:27;101554.16;;;20.61
76009;BMP280;64700;52.130;21.270;2023-05-07T09:50:55;101555.34;;;20.60
76009;BMP280;64700;52.130;21.270;2023-05-07T09:53:22;101557.72;;;20.58
76009;BMP280;64700;52.130;21.270;2023-05-07T09:55:47;101569.69;;;20.60
76009;BMP280;64700;52.130;21.270;2023-05-07T09:58:13;101567.41;;;20.59
76009;BMP280;64700;52.130;21.270;2023-05-07T10:00:39;101560.44;;;20.58
76009;BMP280;64700;52.130;21.270;2023-05-07T10:03:06;101571.78;;;20.56
76009;BMP280;64700;52.130;21.270;2023-05-07T10:05:33;101570.59;;;20.57
76009;BMP280;64700;52.130;21.270;2023-05-07T10:07:58;101567.19;;;20.53
76009;BMP280;64700;52.130;21.270;2023-05-07T10:10:25;101578.06;;;20.53
76009;BMP280;64700;52.130;21.270;2023-05-07T10:12:51;101570.13;;;20.59
76009;BMP280;64700;52.130;21.270;2023-05-07T10:15:16;101578.63;;;20.61
76009;BMP280;64700;52.130;21.270;2023-05-07T10:17:41;101574.81;;;20.58
76009;BMP280;64700;52.130;21.270;2023-05-07T10:20:07;101591.56;;;20.57
76009;BMP280;64700;52.130;21.270;2023-05-07T10:22:37;101574.63;;;20.53
76009;BMP280;64700;52.130;21.270;2023-05-07T10:25:03;101580.34;;;20.55
76009;BMP280;64700;52.130;21.270;2023-05-07T10:27:30;101586.97;;;20.54
76009;BMP280;64700;52.130;21.270;2023-05-07T10:32:33;101596.34;;;20.53
76009;BMP280;64700;52.130;21.270;2023-05-07T10:35:02;101594.38;;;20.53
76009;BMP280;64700;52.130;21.270;2023-05-07T10:37:28;101595.78;;;20.58
76009;BMP280;64700;52.130;21.270;2023-05-07T10:39:54;101588.28;;;20.62
76009;BMP280;64700;52.130;21.270;2023-05-07T10:42:19;101590.47;;;20.67
76009;BMP280;64700;52.130;21.270;2023-05-07T10:44:44;101595.22;;;20.75
76009;BMP280;64700;52.130;21.270;2023-05-07T10:47:10;101599.59;;;20.73
76009;BMP280;64700;52.130;21.270;2023-05-07T10:49:36;101600.66;;;20.75
76009;BMP280;64700;52.130;21.270;2023-05-07T10:55:18;101592.38;;;20.91
76009;BMP280;64700;52.130;21.270;2023-05-07T10:57:49;101595.47;;;20.94
76009;BMP280;64700;52.130;21.270;2023-05-07T11:05:24;101605.22;;;20.91
76009;BMP280;64700;52.130;21.270;2023-05-07T11:10:20;101602.00;;;20.83
76009;BMP280;64700;52.130;21.270;2023-05-07T11:12:46;101608.81;;;20.88
76009;BMP280;64700;52.130;21.270;2023-05-07T11:15:12;101596.97;;;20.95
76009;BMP280;64700;52.130;21.270;2023-05-07T11:17:54;101612.31;;;21.01
76009;BMP280;64700;52.130;21.270;2023-05-07T11:20:19;101604.91;;;21.02
76009;BMP280;64700;52.130;21.270;2023-05-07T11:22:45;101605.03;;;20.98
76009;BMP280;64700;52.130;21.270;2023-05-07T11:25:10;101610.78;;;21.00
76009;BMP280;64700;52.130;21.270;2023-05-07T11:27:41;101620.34;;;21.05
76009;BMP280;64700;52.130;21.270;2023-05-07T11:30:07;101609.03;;;21.06
76009;BMP280;64700;52.130;21.270;2023-05-07T11:32:33;101610.53;;;21.07
76009;BMP280;64700;52.130;21.270;2023-05-07T11:34:58;101624.59;;;21.06
76009;BMP280;64700;52.130;21.270;2023-05-07T11:37:24;101624.72;;;21.02
76009;BMP280;64700;52.130;21.270;2023-05-07T11:39:50;101616.66;;;20.99
76009;BMP280;64700;52.130;21.270;2023-05-07T11:42:27;101612.72;;;21.00
76009;BMP280;64700;52.130;21.270;2023-05-07T11:44:52;101620.03;;;21.03
76009;BMP280;64700;52.130;21.270;2023-05-07T11:47:18;101624.13;;;21.07
76009;BMP280;64700;52.130;21.270;2023-05-07T11:49:45;101627.97;;;21.10
76009;BMP280;64700;52.130;21.270;2023-05-07T11:52:11;101616.63;;;21.11
76009;BMP280;64700;52.130;21.270;2023-05-07T11:54:37;101618.63;;;21.11
76009;BMP280;64700;52.130;21.270;2023-05-07T11:57:03;101620.56;;;21.10
76009;BMP280;64700;52.130;21.270;2023-05-07T11:59:28;101625.13;;;21.01
76009;BMP280;64700;52.130;21.270;2023-05-07T12:01:56;101638.09;;;21.09
76009;BMP280;64700;52.130;21.270;2023-05-07T12:04:22;101622.84;;;21.12
76009;BMP280;64700;52.130;21.270;2023-05-07T12:06:47;101635.31;;;21.22
76009;BMP280;64700;52.130;21.270;2023-05-07T12:09:12;101639.59;;;21.23
76009;BMP280;64700;52.130;21.270;2023-05-07T12:11:38;101633.81;;;21.21
76009;BMP280;64700;52.130;21.270;2023-05-07T12:14:04;101637.28;;;21.21
76009;BMP280;64700;52.130;21.270;2023-05-07T12:16:30;101631.31;;;21.26
76009;BMP280;64700;52.130;21.270;2023-05-07T12:18:55;101637.19;;;21.25
76009;BMP280;64700;52.130;21.270;2023-05-07T12:21:21;101635.22;;;21.25
76009;BMP280;64700;52.130;21.270;2023-05-07T12:23:46;101631.31;;;21.26
76009;BMP280;64700;52.130;21.270;2023-05-07T12:26:12;101638.84;;;21.22
76009;BMP280;64700;52.130;21.270;2023-05-07T12:28:38;101626.97;;;21.16
76009;BMP280;64700;52.130;21.270;2023-05-07T12:31:03;101630.47;;;21.04
76009;BMP280;64700;52.130;21.270;2023-05-07T12:33:29;101625.34;;;21.06
76009;BMP280;64700;52.130;21.270;2023-05-07T12:35:55;101639.81;;;21.03
76009;BMP280;64700;52.130;21.270;2023-05-07T12:38:23;101633.72;;;20.99
76009;BMP280;64700;52.130;21.270;2023-05-07T12:40:55;101641.25;;;20.95
76009;BMP280;64700;52.130;21.270;2023-05-07T12:43:21;101653.66;;;20.96
76009;BMP280;64700;52.130;21.270;2023-05-07T12:45:47;101636.78;;;21.01
76009;BMP280;64700;52.130;21.270;2023-05-07T12:48:13;101647.31;;;20.99
76009;BMP280;64700;52.130;21.270;2023-05-07T12:50:38;101642.78;;;20.96
76009;BMP280;64700;52.130;21.270;2023-05-07T12:53:04;101646.38;;;20.93
76009;BMP280;64700;52.130;21.270;2023-05-07T12:55:31;101646.00;;;20.91
76009;BMP280;64700;52.130;21.270;2023-05-07T12:57:56;101635.59;;;20.89
76009;BMP280;64700;52.130;21.270;2023-05-07T13:00:35;101644.19;;;20.88
76009;BMP280;64700;52.130;21.270;2023-05-07T13:03:01;101647.22;;;20.90
76009;BMP280;64700;52.130;21.270;2023-05-07T13:05:26;101653.88;;;21.02
76009;BMP280;64700;52.130;21.270;2023-05-07T13:07:54;101649.72;;;21.10
76009;BMP280;64700;52.130;21.270;2023-05-07T13:10:21;101653.66;;;21.09
76009;BMP280;64700;52.130;21.270;2023-05-07T13:12:46;101652.31;;;21.13
76009;BMP280;64700;52.130;21.270;2023-05-07T13:15:11;101643.41;;;21.13
76009;BMP280;64700;52.130;21.270;2023-05-07T13:17:36;101650.38;;;21.14
76009;BMP280;64700;52.130;21.270;2023-05-07T13:20:01;101655.06;;;21.13
76009;BMP280;64700;52.130;21.270;2023-05-07T13:22:27;101654.41;;;21.09
76009;BMP280;64700;52.130;21.270;2023-05-07T13:24:52;101659.47;;;21.07
76009;BMP280;64700;52.130;21.270;2023-05-07T13:27:17;101655.06;;;21.13
76009;BMP280;64700;52.130;21.270;2023-05-07T13:29:44;101658.19;;;21.12
76009;BMP280;64700;52.130;21.270;2023-05-07T13:32:09;101650.69;;;21.16
76009;BMP280;64700;52.130;21.270;2023-05-07T13:34:34;101649.59;;;21.13
76009;BMP280;64700;52.130;21.270;2023-05-07T13:37:00;101639.50;;;21.14
76009;BMP280;64700;52.130;21.270;2023-05-07T13:39:25;101641.44;;;21.13
76009;BMP280;64700;52.130;21.270;2023-05-07T13:41:51;101635.78;;;21.08
76009;BMP280;64700;52.130;21.270;2023-05-07T13:44:16;101644.28;;;21.10
76009;BMP280;64700;52.130;21.270;2023-05-07T13:46:41;101642.97;;;21.14
76009;BMP280;64700;52.130;21.270;2023-05-07T13:49:06;101638.38;;;21.24
76009;BMP280;64700;52.130;21.270;2023-05-07T13:51:32;101630.00;;;21.31